Flight Track Log - Related Links

Times and Time Zones

All times are in EDT time to prevent confusion due to time zone crossing. See the N751PS flight status page for this flight to view local times or setup timezone preferences in your user account.

Time Position Orientation Groundspeed Altitude Reporting Facility
EDT Latitude Longitude Course Direction KTS MPH feet Rate Location/Type
Wed 08:09:07 AM 33.7039 -84.4683 278° West 174 200 2,800  Level Atlanta Center
Wed 08:10:07 AM 33.7328 -84.4883 330° Northwest 141 162 3,600 850 Climbing Atlanta Center
Wed 08:11:07 AM 33.7661 -84.5086 333° Northwest 130 150 4,500 700 Climbing Atlanta Center
Wed 08:12:07 AM 33.7933 -84.5286 329° Northwest 125 144 5,000 250 Climbing Atlanta Center
Wed 08:13:00 AM 33.6719 -84.7131 278° West  Level FlightAware Approximate
Wed 08:13:07 AM 33.8139 -84.5789 296° West 137 158 5,000  Level Atlanta Center
Wed 08:14:00 AM 33.6786 -84.7725 278° West  Level FlightAware Approximate
Wed 08:14:07 AM 33.8242 -84.6389 282° West 178 205 5,000  Level Atlanta Center
Wed 08:15:07 AM 33.8217 -84.6989 267° West 185 213 5,900 500 Climbing Atlanta Center
Wed 08:16:07 AM 33.8150 -84.7564 262° West 178 205 6,000 50 Climbing Atlanta Center
Wed 08:17:07 AM 33.8106 -84.8189 265° West 194 223 6,000  Level Atlanta Center
Wed 08:18:12 AM 33.8061 -84.8764 265° West 195 224 6,000 318 Level Atlanta Center
Wed 08:19:19 AM 33.7908 -84.9436 255° West 184 212 6,700 709 Climbing Atlanta Center
Wed 08:20:19 AM 33.7800 -84.9961 256° West 170 196 7,500 650 Climbing Atlanta Center
Wed 08:21:19 AM 33.7692 -85.0508 257° West 165 190 8,000 250 Climbing Atlanta Center
Wed 08:22:19 AM 33.7561 -85.1131 256° West 173 199 8,000  Level Atlanta Center
Wed 08:23:19 AM 33.7453 -85.1731 258° West 184 212 8,000  Level Atlanta Center
Wed 08:24:19 AM 33.7342 -85.2328 257° West 184 212 8,000  Level Atlanta Center
Wed 08:25:19 AM 33.7211 -85.2925 255° West 184 212 8,000  Level Atlanta Center
Wed 08:26:19 AM 33.7081 -85.3522 255° West 184 212 8,000  Level Atlanta Center
Wed 08:27:19 AM 33.6947 -85.4119 255° West 184 212 8,000  Level Atlanta Center
Wed 08:28:19 AM 33.6878 -85.4669 261° West 184 212 8,000  Level Atlanta Center
Wed 08:29:19 AM 33.6789 -85.5267 260° West 184 212 8,000  Level Atlanta Center
Wed 08:30:19 AM 33.6656 -85.5889 256° West 184 212 8,000  Level Atlanta Center
Wed 08:31:19 AM 33.6564 -85.6461 259° West 184 212 8,000  Level Atlanta Center
Wed 08:32:19 AM 33.6431 -85.7056 255° West 184 212 8,000  Level Atlanta Center
Wed 08:33:19 AM 33.6319 -85.7653 257° West 184 212 8,000 60 Level Atlanta Center
Wed 08:33:59 AM 33.6186 -85.8100 250° West 182 209 8,100 60 Climbing Atlanta Center
Wed 08:34:59 AM 33.6075 -85.8694 257° West 182 209 8,100 -50 Level Atlanta Center
Wed 08:36:00 AM 33.5961 -85.9267 257° West 182 209 8,000 -52 Descending Atlanta Center
Wed 08:36:54 AM 33.5847 -85.9814 256° West 183 211 8,000  Level Atlanta Center
Wed 08:38:01 AM 33.5711 -86.0508 257° West 182 209 8,000  Level Atlanta Center
Wed 08:39:08 AM 33.5722 -86.1156 271° West 186 214 8,000  Level Atlanta Center
Wed 08:40:08 AM 33.5711 -86.1756 269° West 181 208 8,000  Level Atlanta Center
Wed 08:41:09 AM 33.5700 -86.2353 269° West 180 207 8,000  Level Atlanta Center
Wed 08:42:03 AM 33.5711 -86.2903 271° West 180 207 8,000  Level Atlanta Center
Wed 08:43:04 AM 33.5681 -86.3500 267° West 181 208 8,000  Level Atlanta Center
Wed 08:44:11 AM 33.5792 -86.4200 281° West 183 211 8,000  Level Atlanta Center
Wed 08:45:11 AM 33.5781 -86.4797 269° West 181 208 8,000  Level Atlanta Center
Wed 08:46:12 AM 33.5769 -86.5397 269° West 182 209 8,000  Level Atlanta Center
Wed 08:47:13 AM 33.5778 -86.5994 271° West 181 208 8,000  Level Atlanta Center
Wed 08:48:13 AM 33.5722 -86.6617 264° West 181 208 8,000  Level Atlanta Center
Wed 08:49:14 AM 33.5731 -86.7264 271° West 180 207 8,000  Level Atlanta Center
Wed 08:50:14 AM 33.5717 -86.7839 268° West 186 214 8,000  Level Atlanta Center
Wed 08:51:15 AM 33.5703 -86.8461 268° West 186 214 8,000  Level Atlanta Center
Wed 08:52:16 AM 33.5689 -86.9058 268° West 180 207 8,000  Level Atlanta Center
Wed 08:53:16 AM 33.5694 -86.9708 271° West 183 211 8,000  Level Atlanta Center
Wed 08:54:11 AM 33.5661 -87.0231 266° West 183 211 8,000  Level Atlanta Center
Wed 08:55:11 AM 33.5644 -87.0878 268° West 180 207 8,000  Level Atlanta Center
Wed 08:56:12 AM 33.5650 -87.1475 271° West 181 208 8,000  Level Atlanta Center
Wed 08:57:19 AM 33.5614 -87.2122 266° West 180 207 8,000  Level Atlanta Center
Wed 08:58:20 AM 33.5619 -87.2722 271° West 179 206 8,000 -32 Level Atlanta Center
Wed 09:00:26 AM 33.5594 -87.4008 269° West 182 209 7,900  Descending Memphis Center
Wed 09:01:27 AM 33.5586 -87.4606 269° West 181 208 8,000 49 Climbing Memphis Center
Wed 09:02:28 AM 33.5581 -87.5206 269° West 182 209 8,000  Level Memphis Center
Wed 09:03:28 AM 33.5572 -87.5853 269° West 182 209 8,000  Level Memphis Center
Wed 09:04:29 AM 33.5544 -87.6453 267° West 182 209 8,000  Level Memphis Center
Wed 09:05:29 AM 33.5536 -87.7050 269° West 181 208 8,000  Level Memphis Center
Wed 09:06:30 AM 33.5508 -87.7650 267° West 181 208 8,000  Level Memphis Center
Wed 09:07:31 AM 33.5497 -87.8222 269° West 180 207 8,000  Level Memphis Center
Wed 09:08:31 AM 33.5492 -87.8872 269° West 180 207 8,000  Level Memphis Center
Wed 09:09:32 AM 33.5461 -87.9469 267° West 181 208 8,000  Level Memphis Center
Wed 09:10:32 AM 33.5453 -88.0069 269° West 181 208 8,000  Level Memphis Center
Wed 09:11:33 AM 33.5422 -88.0667 267° West 181 208 8,000  Level Memphis Center
Wed 09:12:34 AM 33.5411 -88.1317 269° West 181 208 8,000  Level Memphis Center
Wed 09:13:34 AM 33.5381 -88.1889 266° West 179 206 8,000  Level Memphis Center
Wed 09:14:35 AM 33.5369 -88.2489 269° West 178 205 8,000  Level Memphis Center
Wed 09:15:35 AM 33.5339 -88.3061 266° West 177 204 8,000  Level Memphis Center
Wed 09:16:36 AM 33.5328 -88.3711 269° West 178 205 8,000  Level Memphis Center
Wed 09:17:37 AM 33.5294 -88.4308 266° West 179 206 8,000  Level Memphis Center
Wed 09:18:37 AM 33.5283 -88.4883 269° West 180 207 8,000  Level Memphis Center
Wed 09:19:38 AM 33.5269 -88.5456 268° West 180 207 8,000  Level Memphis Center
Wed 09:20:38 AM 33.5236 -88.6056 266° West 181 208 8,000  Level Memphis Center
Wed 09:21:39 AM 33.5244 -88.6653 271° West 180 207 8,000  Level Memphis Center
Wed 09:22:40 AM 33.5192 -88.7300 264° West 180 207 8,000  Level Memphis Center
Wed 09:23:40 AM 33.5200 -88.7900 271° West 181 208 8,000  Level Memphis Center
Wed 09:24:47 AM 33.5167 -88.8547 266° West 181 208 8,000  Level Memphis Center
Wed 09:25:48 AM 33.5153 -88.9194 269° West 181 208 8,000  Level Memphis Center
Wed 09:26:54 AM 33.5117 -88.9819 266° West 180 207 8,000  Level Memphis Center
Wed 09:27:50 AM 33.5081 -89.0342 265° West 206 237 8,000  Level Memphis Center
Wed 09:28:50 AM 33.5047 -89.0992 266° West 206 237 8,000  Level Memphis Center
Wed 09:29:50 AM 33.5053 -89.1564 271° West 194 223 8,000  Level Memphis Center
Wed 09:30:50 AM 33.5017 -89.2186 266° West 189 217 8,000  Level Memphis Center
Wed 09:31:50 AM 33.5000 -89.2786 268° West 189 217 8,000  Level Memphis Center
Wed 09:32:50 AM 33.4964 -89.3358 266° West 189 217 8,000  Level Memphis Center
Wed 09:33:50 AM 33.4947 -89.3958 268° West 183 211 8,000  Level Memphis Center
Wed 09:34:51 AM 33.4931 -89.4556 268° West 183 211 8,000  Level Memphis Center
Wed 09:35:50 AM 33.4894 -89.5253 266° West 183 211 8,000  Level Memphis Center
Wed 09:36:50 AM 33.4878 -89.5850 264° West 183 211 8,000  Level Memphis Center
Wed 09:37:00 AM 33.4835 -89.5953 264° West  Level FlightAware Approximate
Wed 09:37:50 AM 33.4839 -89.6450 266° West 178 205 8,000  Level Memphis Center
Wed 09:38:50 AM 33.4800 -89.7047 266° West 178 205 8,000  Level Memphis Center
Wed 09:39:50 AM 33.4783 -89.7644 268° West 178 205 8,000  Level Memphis Center
Wed 09:40:50 AM 33.4767 -89.8242 268° West 178 205 8,000  Level Memphis Center
Wed 09:41:50 AM 33.4747 -89.8867 268° West 178 205 8,000  Level Memphis Center
Wed 09:42:50 AM 33.4708 -89.9464 266° West 178 205 8,000  Level Memphis Center
Wed 09:43:50 AM 33.4689 -90.0061 268° West 178 205 8,000  Level Memphis Center
Wed 09:44:50 AM 33.4669 -90.0683 268° West 178 205 8,000  Level Memphis Center
Wed 09:45:50 AM 33.4608 -90.1281 263° West 178 205 8,000  Level Memphis Center
Wed 09:46:50 AM 33.4608 -90.1878 270° West 178 205 8,000  Level Memphis Center
Wed 09:47:50 AM 33.4567 -90.2403 265° West 178 205 8,000  Level Memphis Center
Wed 09:48:50 AM 33.4547 -90.3025 268° West 178 205 8,000  Level Memphis Center
Wed 09:49:50 AM 33.4506 -90.3572 265° West 178 205 8,000  Level Memphis Center
Wed 09:50:50 AM 33.4506 -90.4194 270° West 178 205 8,000  Level Memphis Center
Wed 09:51:50 AM 33.4464 -90.4792 265° West 178 205 8,000  Level Memphis Center
Wed 09:52:50 AM 33.4422 -90.5414 265° West 183 211 8,000  Level Memphis Center
Wed 09:53:50 AM 33.4400 -90.6011 267° West 183 211 8,000  Level Memphis Center
Wed 09:54:50 AM 33.4356 -90.6608 265° West 183 211 8,000  Level Memphis Center
Wed 09:55:50 AM 33.4314 -90.7231 265° West 178 205 8,000  Level Memphis Center
Wed 09:56:50 AM 33.4289 -90.7828 267° West 178 205 8,000  Level Memphis Center
Wed 09:57:50 AM 33.4267 -90.8425 267° West 178 205 8,000  Level Memphis Center
Wed 09:58:50 AM 33.4222 -90.9022 265° West 178 205 8,000  Level Memphis Center
Wed 09:59:50 AM 33.4200 -90.9619 267° West 178 205 8,000  Level Memphis Center
Wed 10:00:50 AM 33.4175 -91.0217 267° West 178 205 8,000  Level Memphis Center
Wed 10:01:50 AM 33.4131 -91.0814 265° West 178 205 8,000  Level Memphis Center
Wed 10:02:50 AM 33.4106 -91.1411 267° West 178 205 8,000  Level Memphis Center
Wed 10:03:50 AM 33.4058 -91.2108 265° West 183 211 8,000  Level Memphis Center
Wed 10:04:50 AM 33.4033 -91.2706 267° West 183 211 8,000  Level Memphis Center
Wed 10:05:50 AM 33.3989 -91.3300 265° West 183 211 8,000 150 Level Memphis Center
Wed 10:06:50 AM 33.3942 -91.3897 265° West 178 205 8,300 250 Climbing Memphis Center
Wed 10:07:50 AM 33.3875 -91.4519 263° West 178 205 8,500 100 Climbing Memphis Center
Wed 10:08:50 AM 33.3869 -91.5142 269° West 188 216 8,500  Level Memphis Center
Wed 10:09:50 AM 33.3819 -91.5786 265° West 188 216 8,500  Level Memphis Center
Wed 10:10:50 AM 33.3814 -91.6383 269° West 188 216 8,500  Level Memphis Center
Wed 10:11:50 AM 33.3744 -91.7006 262° West 193 222 8,500  Level Memphis Center
Wed 10:12:50 AM 33.3717 -91.7603 267° West 193 222 8,500  Level Memphis Center
Wed 10:13:50 AM 33.3689 -91.8222 267° West 193 222 8,500  Level Memphis Center
Wed 10:14:50 AM 33.3642 -91.8844 265° West 193 222 8,500  Level Memphis Center
Wed 10:15:50 AM 33.3592 -91.9439 264° West 193 222 8,500  Level Memphis Center
Wed 10:16:50 AM 33.3564 -92.0061 267° West 193 222 8,500  Level Memphis Center
Wed 10:17:50 AM 33.3514 -92.0683 265° West 193 222 8,500  Level Memphis Center
Wed 10:18:51 AM 33.3506 -92.1278 269° West 193 222 8,500  Level Memphis Center
Wed 10:19:50 AM 33.3453 -92.1900 264° West 193 222 8,500 -90 Level Memphis Center
Wed 10:21:00 AM 33.3158 -92.2508 240° Southwest  Level FlightAware Approximate
Wed 10:28:00 AM 33.2569 -92.6723 263° West  Level FlightAware Approximate
Wed 10:29:00 AM 33.2501 -92.7320 262° West  Level FlightAware Approximate
Wed 10:30:00 AM 33.2123 -92.7712 220° Southwest  Level FlightAware Approximate
Wed 10:31:00 AM 33.1737 -92.8100 220° Southwest  Level FlightAware Approximate
Wed 10:32:00 AM 33.1351 -92.8486 220° Southwest  Level FlightAware Approximate
Wed 10:33:00 AM 33.0965 -92.8873 220° Southwest  Level FlightAware Approximate
Wed 10:34:00 AM 33.0579 -92.9259 220° Southwest  Level FlightAware Approximate
Wed 10:35:00 AM 33.0192 -92.9645 220° Southwest  Level FlightAware Approximate
Wed 10:36:00 AM 32.9806 -93.0030 220° Southwest  Level FlightAware Approximate
Wed 10:37:00 AM 32.9419 -93.0415 220° Southwest  Level FlightAware Approximate
Wed 10:38:00 AM 32.9033 -93.0801 220° Southwest  Level FlightAware Approximate
Wed 10:39:00 AM 32.8648 -93.1189 220° Southwest  Level FlightAware Approximate
Wed 10:40:00 AM 32.8264 -93.1576 220° Southwest  Level FlightAware Approximate
Wed 10:41:00 AM 32.7878 -93.1962 220° Southwest  Level FlightAware Approximate
Wed 10:42:00 AM 32.7493 -93.2349 220° Southwest  Level FlightAware Approximate
Wed 10:43:00 AM 32.7108 -93.2735 220° Southwest  Level FlightAware Approximate
Wed 10:44:00 AM 32.6723 -93.3121 220° Southwest  Level FlightAware Approximate
Wed 10:45:00 AM 32.6337 -93.3506 220° Southwest  Level FlightAware Approximate
Wed 10:46:00 AM 32.5952 -93.3891 220° Southwest  Level FlightAware Approximate
Wed 10:47:00 AM 32.5566 -93.4276 220° Southwest  Level FlightAware Approximate
Wed 10:48:00 AM 32.5180 -93.4660 220° Southwest  Level FlightAware Approximate
Wed 10:49:00 AM 32.4794 -93.5044 220° Southwest  Level FlightAware Approximate
Wed 10:50:00 AM 32.4408 -93.5428 220° Southwest  Level FlightAware Approximate
Wed 10:51:00 AM 32.4022 -93.5811 220° Southwest  Level FlightAware Approximate
Wed 10:52:00 AM 32.4002 -93.6396 270° West  Level FlightAware Approximate
Wed 10:53:00 AM 32.4003 -93.6993 270° West  Level FlightAware Approximate
Wed 10:54:00 AM 32.4004 -93.7589 270° West  Level FlightAware Approximate
Wed 10:55:00 AM 32.4005 -93.8186 270° West  Level FlightAware Approximate
Wed 10:56:00 AM 32.4005 -93.8783 270° West  Level FlightAware Approximate
Wed 10:57:00 AM 32.4005 -93.9380 270° West  Level FlightAware Approximate
Wed 10:58:00 AM 32.4005 -93.9977 270° West  Level FlightAware Approximate
Wed 10:59:00 AM 32.4005 -94.0574 270° West  Level FlightAware Approximate
Wed 11:00:00 AM 32.4004 -94.1170 270° West  Level FlightAware Approximate
Wed 11:01:00 AM 32.4003 -94.1767 270° West  Level FlightAware Approximate
Wed 11:02:00 AM 32.4002 -94.2364 270° West  Level FlightAware Approximate
Wed 11:03:00 AM 32.4001 -94.2961 270° West  Level FlightAware Approximate
Wed 11:04:00 AM 32.4016 -94.3557 273° West  Level FlightAware Approximate
Wed 11:05:00 AM 32.4039 -94.4153 273° West  Level FlightAware Approximate
Wed 11:06:00 AM 32.4063 -94.4749 273° West  Level FlightAware Approximate
Wed 11:07:00 AM 32.4086 -94.5345 273° West  Level FlightAware Approximate
Wed 11:08:00 AM 32.4109 -94.5941 273° West  Level FlightAware Approximate
Wed 11:09:00 AM 32.4131 -94.6537 273° West  Level FlightAware Approximate
Wed 11:10:00 AM 32.4153 -94.7134 273° West  Level FlightAware Approximate
Wed 11:11:00 AM 32.4122 -94.7724 257° West  Level FlightAware Approximate
Wed 11:12:00 AM 32.4006 -94.8305 257° West  Level FlightAware Approximate
Wed 11:13:00 AM 32.3890 -94.8886 257° West  Level FlightAware Approximate
Wed 11:14:00 AM 32.3774 -94.9466 257° West  Level FlightAware Approximate
Wed 11:15:00 AM 32.3660 -95.0047 260° West  Level FlightAware Approximate
Wed 11:16:00 AM 32.3570 -95.0634 260° West  Level FlightAware Approximate
Wed 11:17:00 AM 32.3479 -95.1221 260° West  Level FlightAware Approximate
Wed 11:18:00 AM 32.3389 -95.1807 260° West  Level FlightAware Approximate
Wed 11:19:00 AM 32.3299 -95.2394 260° West  Level FlightAware Approximate
Wed 11:20:00 AM 32.3209 -95.2981 260° West  Level FlightAware Approximate
Wed 11:21:00 AM 32.3120 -95.3568 260° West  Level FlightAware Approximate
Wed 11:22:00 AM 32.3030 -95.4154 260° West  Level FlightAware Approximate
Wed 11:23:00 AM 32.2939 -95.4741 260° West  Level FlightAware Approximate
Wed 11:24:00 AM 32.2849 -95.5327 260° West  Level FlightAware Approximate
Wed 11:25:00 AM 32.2758 -95.5913 260° West  Level FlightAware Approximate
Wed 11:26:00 AM 32.2667 -95.6499 260° West  Level FlightAware Approximate
Wed 11:27:00 AM 32.2601 -95.7090 263° West  Level FlightAware Approximate
Wed 11:28:00 AM 32.2536 -95.7681 263° West  Level FlightAware Approximate
Wed 11:29:00 AM 32.2639 -95.8219 307° West  Level FlightAware Approximate
Wed 11:30:00 AM 32.2943 -95.8695 307° West  Level FlightAware Approximate
Wed 11:30:43 AM 33.0000 -96.5167 303° West 171 197 2,000  Level Dallas / Fort Worth TRACON
Wed 11:31:00 AM 32.3246 -95.9171 307° West  Level FlightAware Approximate
Wed 11:31:44 AM 32.9833 -96.5833 253° West 176 203 1,800  Level Dallas / Fort Worth TRACON
Wed 11:32:00 AM 32.3549 -95.9648 307° West  Level FlightAware Approximate
Wed 11:32:46 AM 32.9833 -96.6333 270° West 169 194 1,800  Level Dallas / Fort Worth TRACON
Wed 11:33:00 AM 32.3835 -96.0138 303° West  Level FlightAware Approximate
Wed 11:33:43 AM 32.9833 -96.6833 270° West 169 194 1,800  Level Dallas / Fort Worth TRACON
Wed 11:34:00 AM 32.4110 -96.0638 303° West  Level FlightAware Approximate
Wed 11:34:44 AM 32.9833 -96.7500 270° West 169 194 1,800  Level Dallas / Fort Worth TRACON
Wed 11:35:00 AM 32.4386 -96.1137 303° West  Level FlightAware Approximate
Wed 11:35:45 AM 32.9833 -96.8000 270° West 159 183 1,600  Level Dallas / Fort Worth TRACON
Wed 11:36:00 AM 32.4661 -96.1638 303° West  Level FlightAware Approximate
Wed 11:36:45 AM 33.0000 -96.8333 301° West 128 147 1,400  Level Dallas / Fort Worth TRACON
Wed 11:38:00 AM 32.9667 -96.8333 320° Northwest  Level FlightAware Approximate
Wed 11:45:00 AM 32.9686 -96.8364 320° Northwest  Level Estimated
Wed 11:46:00 AM 32.9667 -96.8333 320° Northwest  Level FlightAware Approximate

Login

Don't have an account? Register now (free) for customized features, flight alerts, and more!